Time;durP1;ratioP1;P1;durP2;ratioP2;P2;SDS_P1;SDS_P2;PMS_P1;PMS_P2;Temp;Humidity;BMP_temperature;BMP_pressure;BME280_temperature;BME280_humidity;BME280_pressure;Samples;Min_cycle;Max_cycle;Signal;HPM_P1;HPM_P2
2024/02/23 00:01:57;;;;;;;1.70;0.40;;;5.60;99.90;;;;;;5062174;28;20085;-62
2024/02/23 00:04:23;;;;;;;1.20;0.63;;;5.70;99.90;;;;;;5054734;28;20488;-63
2024/02/23 00:06:48;;;;;;;1.30;0.40;;;5.50;99.90;;;;;;5048316;28;20056;-66
2024/02/23 00:09:14;;;;;;;1.90;0.50;;;5.50;99.90;;;;;;5041635;28;20116;-62
2024/02/23 00:11:44;;;;;;;3.83;0.60;;;5.50;99.90;;;;;;5042893;28;20044;-62
2024/02/23 00:14:10;;;;;;;3.83;0.60;;;5.40;99.90;;;;;;5044807;28;20049;-63
2024/02/23 00:16:40;;;;;;;3.85;0.80;;;5.40;99.90;;;;;;5041854;28;20048;-63
2024/02/23 00:19:09;;;;;;;4.78;0.50;;;5.40;99.90;;;;;;5044318;28;20041;-63
2024/02/23 00:21:35;;;;;;;1.50;0.63;;;5.40;99.90;;;;;;5045691;28;20080;-63
2024/02/23 00:24:00;;;;;;;2.67;0.60;;;5.40;99.90;;;;;;5048507;28;20040;-64
2024/02/23 00:26:27;;;;;;;1.75;0.73;;;5.40;99.90;;;;;;5049180;28;20043;-63
2024/02/23 00:28:53;;;;;;;0.82;0.30;;;5.30;99.90;;;;;;5055402;28;20040;-64
2024/02/23 00:31:19;;;;;;;0.90;0.40;;;5.30;99.90;;;;;;5050024;28;20047;-63
2024/02/23 00:33:44;;;;;;;1.60;0.73;;;5.20;99.90;;;;;;5047468;28;20079;-63
2024/02/23 00:36:10;;;;;;;0.95;0.60;;;5.20;99.90;;;;;;5059253;28;20083;-63
2024/02/23 00:38:36;;;;;;;1.33;0.50;;;5.10;99.90;;;;;;5047563;28;20548;-63
2024/02/23 00:41:01;;;;;;;1.10;0.70;;;5.10;99.90;;;;;;5048980;28;20112;-63
2024/02/23 00:43:29;;;;;;;1.65;0.60;;;5.00;99.90;;;;;;5051758;28;20068;-63
2024/02/23 00:45:55;;;;;;;2.20;0.70;;;5.00;99.90;;;;;;5045819;28;20041;-63
2024/02/23 00:48:21;;;;;;;2.78;0.80;;;5.00;99.90;;;;;;5046086;28;20446;-63
2024/02/23 00:50:46;;;;;;;0.60;0.50;;;4.90;99.90;;;;;;5052656;28;20029;-63
2024/02/23 00:53:12;;;;;;;3.35;0.80;;;4.90;99.90;;;;;;5048521;28;20392;-63
2024/02/23 00:55:38;;;;;;;2.83;0.88;;;4.90;99.90;;;;;;5044747;28;20098;-63
2024/02/23 00:58:04;;;;;;;1.48;0.70;;;4.80;99.90;;;;;;5048406;28;20485;-64
2024/02/23 01:00:29;;;;;;;2.20;0.70;;;4.80;99.90;;;;;;5052541;28;20072;-63
2024/02/23 01:02:55;;;;;;;2.05;0.60;;;4.80;99.90;;;;;;5052051;28;20062;-63
2024/02/23 01:05:20;;;;;;;3.58;0.90;;;4.80;99.90;;;;;;5051983;28;20029;-63
2024/02/23 01:07:46;;;;;;;1.25;0.80;;;4.80;99.90;;;;;;5049958;28;20037;-64
2024/02/23 01:10:12;;;;;;;6.05;1.17;;;4.80;99.90;;;;;;5045853;28;20036;-64
2024/02/23 01:12:37;;;;;;;3.80;0.90;;;4.80;99.90;;;;;;5051244;28;20044;-63
2024/02/23 01:15:03;;;;;;;3.65;1.00;;;4.80;99.90;;;;;;5051697;28;20044;-63
2024/02/23 01:17:29;;;;;;;6.22;1.00;;;4.80;99.90;;;;;;5051806;28;20045;-63
2024/02/23 01:19:54;;;;;;;6.93;1.35;;;4.80;99.90;;;;;;5044872;28;20037;-63
2024/02/23 01:22:20;;;;;;;8.32;1.60;;;4.80;99.90;;;;;;5049928;28;20037;-63
2024/02/23 01:24:46;;;;;;;7.72;1.65;;;4.80;99.90;;;;;;5049337;28;20068;-63
2024/02/23 01:27:11;;;;;;;5.13;1.50;;;4.80;99.90;;;;;;5051944;28;20033;-64
2024/02/23 01:29:37;;;;;;;5.45;1.35;;;4.80;99.90;;;;;;5049925;28;20056;-63
2024/02/23 01:32:03;;;;;;;5.68;1.23;;;4.90;99.90;;;;;;5048877;28;20127;-63
2024/02/23 01:34:29;;;;;;;5.53;1.70;;;4.90;99.90;;;;;;5050403;28;20175;-63
2024/02/23 01:36:54;;;;;;;5.72;1.52;;;4.90;99.90;;;;;;5054410;28;20044;-63
2024/02/23 01:39:20;;;;;;;10.38;1.60;;;4.90;99.90;;;;;;5057250;28;20053;-63
2024/02/23 01:41:46;;;;;;;9.05;1.80;;;5.00;99.90;;;;;;5043769;28;20039;-64
2024/02/23 01:44:11;;;;;;;5.50;1.92;;;5.00;99.90;;;;;;5051414;28;20376;-64
2024/02/23 01:46:37;;;;;;;8.38;1.60;;;5.00;99.90;;;;;;5048140;28;20492;-64
2024/02/23 01:49:04;;;;;;;10.02;2.10;;;5.10;99.90;;;;;;5050797;28;20087;-64
2024/02/23 01:51:29;;;;;;;7.13;1.40;;;5.10;99.90;;;;;;5051645;28;20049;-64
2024/02/23 01:53:55;;;;;;;8.85;1.52;;;5.10;99.90;;;;;;5044026;28;20044;-64
2024/02/23 01:56:21;;;;;;;8.20;1.73;;;5.10;99.90;;;;;;5048700;28;20401;-64
2024/02/23 01:58:47;;;;;;;18.70;2.03;;;5.10;99.90;;;;;;5049923;28;20049;-63
2024/02/23 02:01:13;;;;;;;9.25;1.45;;;5.20;99.90;;;;;;5057245;28;20044;-63
2024/02/23 02:03:39;;;;;;;8.63;1.98;;;5.20;99.90;;;;;;5044143;28;20060;-63
2024/02/23 02:06:06;;;;;;;9.90;2.17;;;5.20;99.90;;;;;;5051188;28;20029;-64
2024/02/23 02:08:34;;;;;;;10.32;1.90;;;5.30;99.90;;;;;;5054213;28;20453;-63
2024/02/23 02:11:00;;;;;;;9.10;1.75;;;5.30;99.90;;;;;;5045696;28;20112;-63
2024/02/23 02:13:27;;;;;;;11.05;1.60;;;5.30;99.90;;;;;;5050599;28;20130;-63
2024/02/23 02:15:53;;;;;;;8.27;1.58;;;5.30;99.90;;;;;;5044025;28;20045;-64
2024/02/23 02:18:18;;;;;;;9.40;1.83;;;5.30;99.90;;;;;;5049614;28;20150;-63
2024/02/23 02:20:53;;;;;;;13.43;2.20;;;5.30;99.90;;;;;;5050063;28;20053;-63
2024/02/23 02:23:19;;;;;;;9.60;2.00;;;5.30;99.90;;;;;;5051505;28;20072;-63
2024/02/23 02:25:44;;;;;;;6.95;1.70;;;5.30;99.90;;;;;;5047860;28;20587;-63
2024/02/23 02:28:10;;;;;;;15.02;2.58;;;5.30;99.90;;;;;;5044256;28;20041;-63
2024/02/23 02:30:36;;;;;;;6.70;1.75;;;5.30;99.90;;;;;;5050822;28;20070;-63
2024/02/23 02:33:01;;;;;;;10.13;2.10;;;5.30;99.90;;;;;;5041445;28;20531;-64
2024/02/23 02:35:27;;;;;;;17.20;2.28;;;5.30;99.90;;;;;;5048786;28;20060;-64
2024/02/23 02:37:53;;;;;;;7.82;1.80;;;5.30;99.90;;;;;;5050602;28;20043;-63
2024/02/23 02:40:18;;;;;;;7.70;2.00;;;5.30;99.90;;;;;;5042346;28;20041;-63
2024/02/23 02:42:44;;;;;;;11.55;2.20;;;5.30;99.90;;;;;;5049485;28;20048;-63
2024/02/23 02:45:10;;;;;;;9.15;1.83;;;5.30;99.90;;;;;;5034275;28;20079;-63
2024/02/23 02:47:36;;;;;;;7.50;1.98;;;5.50;99.90;;;;;;5046601;28;20033;-63
2024/02/23 02:50:02;;;;;;;7.68;1.83;;;5.40;99.90;;;;;;5043031;28;20053;-63
2024/02/23 02:52:28;;;;;;;10.35;2.35;;;5.40;99.90;;;;;;5055728;28;20128;-63
2024/02/23 02:54:54;;;;;;;9.25;2.47;;;5.40;99.90;;;;;;5050383;28;20047;-63
2024/02/23 02:57:19;;;;;;;8.05;1.95;;;5.40;99.90;;;;;;5038690;28;20030;-63
2024/02/23 02:59:45;;;;;;;8.60;2.03;;;5.40;99.90;;;;;;5039981;28;20043;-63
2024/02/23 03:02:11;;;;;;;9.13;2.08;;;5.40;99.90;;;;;;5048097;28;20041;-63
2024/02/23 03:04:37;;;;;;;11.73;2.10;;;5.40;99.90;;;;;;5040718;28;20046;-63
2024/02/23 03:07:03;;;;;;;11.15;1.67;;;5.40;99.90;;;;;;5049778;28;20112;-63
2024/02/23 03:09:28;;;;;;;9.48;2.08;;;5.40;99.90;;;;;;5050966;28;20059;-63
2024/02/23 03:11:54;;;;;;;13.43;2.88;;;5.40;99.90;;;;;;5047795;28;20041;-63
2024/02/23 03:14:20;;;;;;;9.05;2.00;;;5.40;99.90;;;;;;5050541;28;20033;-63
2024/02/23 03:16:47;;;;;;;11.70;2.03;;;5.40;99.90;;;;;;5045243;28;20041;-63
2024/02/23 03:19:13;;;;;;;9.85;2.47;;;5.40;99.90;;;;;;5059327;28;20041;-63
2024/02/23 03:21:39;;;;;;;9.75;1.95;;;5.40;99.90;;;;;;5050105;28;20039;-63
2024/02/23 03:24:04;;;;;;;13.90;2.05;;;5.30;99.90;;;;;;5050081;28;20052;-63
2024/02/23 03:26:30;;;;;;;10.45;1.70;;;5.30;99.90;;;;;;5049696;28;20120;-64
2024/02/23 03:28:56;;;;;;;10.50;2.28;;;5.30;99.90;;;;;;5040252;28;20037;-63
2024/02/23 03:31:21;;;;;;;9.25;1.70;;;5.30;99.90;;;;;;5044926;28;20068;-63
2024/02/23 03:33:47;;;;;;;8.43;2.03;;;5.30;99.90;;;;;;5049770;28;20098;-63
2024/02/23 03:36:13;;;;;;;9.75;1.67;;;5.30;99.90;;;;;;5054651;28;20040;-63
2024/02/23 03:38:38;;;;;;;7.47;1.55;;;5.30;99.90;;;;;;5043194;28;20497;-63
2024/02/23 03:41:04;;;;;;;6.22;1.60;;;5.30;99.90;;;;;;5040270;28;20092;-63
2024/02/23 03:43:29;;;;;;;8.63;1.50;;;5.20;99.90;;;;;;5044560;28;20389;-63
2024/02/23 03:45:55;;;;;;;7.03;1.35;;;5.20;99.90;;;;;;5050131;28;20454;-63
2024/02/23 03:48:21;;;;;;;3.63;1.13;;;5.20;99.90;;;;;;5048438;28;20037;-63
2024/02/23 03:50:46;;;;;;;5.05;1.20;;;5.10;99.90;;;;;;5048240;28;20045;-63
2024/02/23 03:53:12;;;;;;;6.13;1.38;;;5.10;99.90;;;;;;5043696;28;20037;-63
2024/02/23 03:55:38;;;;;;;8.98;1.40;;;5.10;99.90;;;;;;5053793;28;20037;-63
2024/02/23 03:58:03;;;;;;;4.35;1.00;;;5.10;99.90;;;;;;5053598;28;20127;-63
2024/02/23 04:00:29;;;;;;;7.38;1.50;;;5.00;99.90;;;;;;5053066;28;20129;-63
2024/02/23 04:02:55;;;;;;;9.48;1.35;;;5.00;99.90;;;;;;5043361;28;20088;-63
2024/02/23 04:05:20;;;;;;;6.30;1.45;;;5.00;99.90;;;;;;5041793;28;20034;-63
2024/02/23 04:07:46;;;;;;;6.13;1.30;;;5.00;99.90;;;;;;5048264;28;20052;-63
2024/02/23 04:10:16;;;;;;;6.75;1.45;;;5.00;99.90;;;;;;5051006;28;20037;-63
2024/02/23 04:12:43;;;;;;;6.88;1.50;;;5.10;99.90;;;;;;5047187;28;20072;-63
2024/02/23 04:15:09;;;;;;;8.85;1.90;;;5.00;99.90;;;;;;5046622;28;20053;-63
2024/02/23 04:17:35;;;;;;;10.63;2.08;;;5.00;99.90;;;;;;5047155;28;20090;-63
2024/02/23 04:20:06;;;;;;;9.50;2.05;;;5.00;99.90;;;;;;5048276;28;20140;-63
2024/02/23 04:22:31;;;;;;;11.57;2.33;;;5.00;99.90;;;;;;5049263;28;20042;-63
2024/02/23 04:24:57;;;;;;;11.63;2.50;;;5.00;99.90;;;;;;5053396;28;20041;-63
2024/02/23 04:27:23;;;;;;;11.05;2.00;;;5.00;99.90;;;;;;5052331;28;20395;-63
2024/02/23 04:29:48;;;;;;;8.15;2.30;;;5.00;99.90;;;;;;5048884;28;20045;-63
2024/02/23 04:32:14;;;;;;;13.13;2.83;;;5.00;99.90;;;;;;5053753;28;20451;-63
2024/02/23 04:34:41;;;;;;;9.30;3.15;;;5.00;99.90;;;;;;5052150;28;20053;-63
2024/02/23 04:37:07;;;;;;;10.18;3.38;;;5.00;99.90;;;;;;5039946;28;20117;-63
2024/02/23 04:39:33;;;;;;;13.55;3.83;;;5.10;99.90;;;;;;5049745;28;20463;-63
2024/02/23 04:41:58;;;;;;;11.27;4.05;;;5.10;99.90;;;;;;5058339;28;20063;-63
2024/02/23 04:44:24;;;;;;;15.10;4.80;;;5.10;99.90;;;;;;5047378;28;20132;-63
2024/02/23 04:46:50;;;;;;;14.75;4.70;;;5.10;99.90;;;;;;5050767;28;20072;-63
2024/02/23 04:49:15;;;;;;;14.32;4.75;;;5.10;99.90;;;;;;5051805;28;20131;-63
2024/02/23 04:51:41;;;;;;;16.27;5.20;;;5.10;99.90;;;;;;5052412;28;20041;-63
2024/02/23 04:54:08;;;;;;;10.88;4.95;;;5.20;99.90;;;;;;5045423;28;20520;-63
2024/02/23 04:56:33;;;;;;;14.77;5.68;;;5.20;99.90;;;;;;5050910;28;20170;-63
2024/02/23 04:58:59;;;;;;;14.77;5.63;;;5.20;99.90;;;;;;5044382;28;20084;-63
2024/02/23 05:01:25;;;;;;;10.07;4.88;;;5.20;99.90;;;;;;5050209;28;20086;-63
2024/02/23 05:03:50;;;;;;;13.15;5.47;;;5.20;99.90;;;;;;5062333;28;20048;-63
2024/02/23 05:06:16;;;;;;;13.38;5.90;;;5.30;99.90;;;;;;5051488;28;20473;-63
2024/02/23 05:08:42;;;;;;;12.10;5.40;;;5.20;99.90;;;;;;5051413;28;20416;-63
2024/02/23 05:11:07;;;;;;;13.02;5.72;;;5.20;99.90;;;;;;5046754;28;20063;-63
2024/02/23 05:13:33;;;;;;;12.82;5.53;;;5.30;99.90;;;;;;5051518;28;20033;-63
2024/02/23 05:15:58;;;;;;;13.70;5.30;;;5.20;99.90;;;;;;5052517;28;20037;-63
2024/02/23 05:18:24;;;;;;;12.35;4.95;;;5.20;99.90;;;;;;5051601;28;20033;-63
2024/02/23 05:20:50;;;;;;;16.00;5.15;;;5.20;99.90;;;;;;5050280;28;20447;-63
2024/02/23 05:23:15;;;;;;;13.32;5.07;;;5.20;99.90;;;;;;5051473;28;20036;-63
2024/02/23 05:25:44;;;;;;;13.25;5.07;;;5.30;99.90;;;;;;5049799;28;20043;-63
2024/02/23 05:28:09;;;;;;;13.63;5.13;;;5.20;99.90;;;;;;5047005;28;20139;-63
2024/02/23 05:30:35;;;;;;;14.23;5.38;;;5.40;99.90;;;;;;5051404;28;20127;-64
2024/02/23 05:33:03;;;;;;;13.93;5.22;;;5.10;99.90;;;;;;5050721;28;20033;-63
2024/02/23 05:35:29;;;;;;;11.95;4.75;;;5.10;99.90;;;;;;5051280;28;20055;-63
2024/02/23 05:37:55;;;;;;;13.73;5.47;;;5.10;99.90;;;;;;5050817;28;20060;-63
2024/02/23 05:40:21;;;;;;;15.13;5.25;;;5.10;99.90;;;;;;5048538;28;20513;-63
2024/02/23 05:42:47;;;;;;;15.32;5.10;;;5.10;99.90;;;;;;5043842;28;20037;-63
2024/02/23 05:45:12;;;;;;;15.52;5.35;;;5.10;99.90;;;;;;5041566;28;20406;-63
2024/02/23 05:47:38;;;;;;;12.02;5.13;;;5.10;99.90;;;;;;5051145;28;20037;-64
2024/02/23 05:50:05;;;;;;;13.35;4.97;;;5.00;99.90;;;;;;5051078;28;20068;-63
2024/02/23 05:52:34;;;;;;;15.00;5.10;;;5.00;99.90;;;;;;5052775;28;20120;-63
2024/02/23 05:55:06;;;;;;;13.38;5.30;;;5.10;99.90;;;;;;5050825;28;20050;-63
2024/02/23 05:57:31;;;;;;;11.15;5.05;;;5.00;99.90;;;;;;5049285;28;20551;-63
2024/02/23 05:59:57;;;;;;;14.55;5.13;;;4.90;99.90;;;;;;5051649;28;20044;-63
2024/02/23 06:02:23;;;;;;;12.77;4.75;;;4.90;99.90;;;;;;5047972;28;20034;-63
2024/02/23 06:04:48;;;;;;;11.80;5.63;;;4.90;99.90;;;;;;5046574;28;20455;-63
2024/02/23 06:07:17;;;;;;;11.73;4.75;;;4.90;99.90;;;;;;5046629;28;20064;-63
2024/02/23 06:09:43;;;;;;;16.30;6.25;;;4.90;99.90;;;;;;5050946;28;20052;-64
2024/02/23 06:12:09;;;;;;;10.10;4.63;;;4.90;99.90;;;;;;5049979;28;20052;-63
2024/02/23 06:14:35;;;;;;;13.65;5.18;;;4.90;99.90;;;;;;5051631;28;20404;-63
2024/02/23 06:17:02;;;;;;;13.05;4.78;;;4.90;99.90;;;;;;5050837;28;20044;-64
2024/02/23 06:19:28;;;;;;;17.48;6.35;;;4.90;99.90;;;;;;5045724;28;20388;-63
2024/02/23 06:21:54;;;;;;;13.02;5.07;;;4.90;99.90;;;;;;5054652;28;20040;-63
2024/02/23 06:24:20;;;;;;;11.60;5.10;;;4.90;99.90;;;;;;5050419;28;20040;-63
2024/02/23 06:26:48;;;;;;;15.70;5.97;;;4.90;99.90;;;;;;5053315;28;20041;-63
2024/02/23 06:29:14;;;;;;;13.23;5.65;;;5.00;99.90;;;;;;5051399;28;20051;-63
2024/02/23 06:31:41;;;;;;;14.45;5.35;;;5.00;99.90;;;;;;5049724;28;20033;-63
2024/02/23 06:34:07;;;;;;;15.27;5.40;;;5.00;99.90;;;;;;5056666;28;20052;-63
2024/02/23 06:36:33;;;;;;;15.88;5.43;;;5.00;99.90;;;;;;5056234;28;20032;-63
2024/02/23 06:38:59;;;;;;;10.07;5.07;;;5.00;99.90;;;;;;5054787;28;20045;-63
2024/02/23 06:41:24;;;;;;;15.80;5.60;;;5.10;99.90;;;;;;5055122;28;20472;-64
2024/02/23 06:43:52;;;;;;;13.73;5.25;;;5.10;99.90;;;;;;5049524;28;20037;-63
2024/02/23 06:46:19;;;;;;;14.48;5.20;;;5.20;99.90;;;;;;5044831;28;20112;-63
2024/02/23 06:48:45;;;;;;;11.43;5.05;;;5.20;99.90;;;;;;5045441;28;20500;-63
2024/02/23 06:51:11;;;;;;;13.80;4.53;;;5.20;99.90;;;;;;5026444;28;20040;-64
2024/02/23 06:53:37;;;;;;;17.08;4.88;;;5.30;99.90;;;;;;5041833;28;20029;-63
2024/02/23 06:56:03;;;;;;;12.10;5.00;;;5.30;99.90;;;;;;5049972;28;20072;-63
2024/02/23 06:58:29;;;;;;;14.95;5.18;;;5.30;99.90;;;;;;5057303;28;20044;-63
2024/02/23 07:00:55;;;;;;;12.25;4.68;;;5.30;99.90;;;;;;5048736;28;20037;-63
2024/02/23 07:03:20;;;;;;;13.73;4.57;;;5.30;99.90;;;;;;5048400;28;20033;-63
2024/02/23 07:05:47;;;;;;;13.43;4.93;;;5.30;99.90;;;;;;5049903;28;20074;-63
2024/02/23 07:08:13;;;;;;;11.43;4.55;;;5.30;99.90;;;;;;5042729;28;20037;-63
2024/02/23 07:10:38;;;;;;;15.32;4.30;;;5.30;99.90;;;;;;5061191;28;20032;-63
2024/02/23 07:13:04;;;;;;;11.77;3.80;;;5.30;99.90;;;;;;5050904;28;20047;-63
2024/02/23 07:15:32;;;;;;;11.48;4.47;;;5.30;99.90;;;;;;5046134;28;20045;-63
2024/02/23 07:17:58;;;;;;;12.18;3.90;;;5.40;99.90;;;;;;5043879;28;20070;-64
2024/02/23 07:20:23;;;;;;;9.00;3.85;;;5.40;99.90;;;;;;5058243;28;20041;-64
2024/02/23 07:22:49;;;;;;;11.07;3.67;;;5.40;99.90;;;;;;5049782;28;20111;-64
2024/02/23 07:25:20;;;;;;;12.77;3.67;;;5.40;99.90;;;;;;5050224;28;20029;-64
2024/02/23 07:27:48;;;;;;;13.68;3.42;;;5.40;99.90;;;;;;5045826;28;20090;-64
2024/02/23 07:30:16;;;;;;;8.05;3.00;;;5.40;99.90;;;;;;5051733;28;20036;-64
2024/02/23 07:32:42;;;;;;;10.85;3.45;;;5.50;99.90;;;;;;5046491;28;20038;-64
2024/02/23 07:35:08;;;;;;;10.30;3.15;;;5.60;99.90;;;;;;5050272;28;20082;-63
2024/02/23 07:37:34;;;;;;;8.48;3.15;;;5.50;99.90;;;;;;5046602;28;20045;-63
2024/02/23 07:40:00;;;;;;;6.88;2.60;;;5.50;99.90;;;;;;5040547;28;20087;-63
2024/02/23 07:42:25;;;;;;;9.82;3.22;;;5.50;99.90;;;;;;5050287;28;20120;-63
2024/02/23 07:44:51;;;;;;;8.63;2.70;;;5.50;99.90;;;;;;5044381;28;20036;-63
2024/02/23 07:47:17;;;;;;;12.90;2.67;;;5.50;99.90;;;;;;5042750;28;20034;-64
2024/02/23 07:49:43;;;;;;;6.68;2.38;;;5.50;99.90;;;;;;5053055;28;20041;-63
2024/02/23 07:52:08;;;;;;;10.43;2.70;;;5.50;99.90;;;;;;5046360;28;20029;-63
2024/02/23 07:54:34;;;;;;;11.32;2.67;;;5.50;99.90;;;;;;5043014;28;20038;-63
2024/02/23 07:57:00;;;;;;;6.35;2.35;;;5.60;99.90;;;;;;5048049;28;20037;-63
2024/02/23 07:59:26;;;;;;;6.38;2.03;;;5.50;99.90;;;;;;5056041;28;20049;-63
2024/02/23 08:01:51;;;;;;;9.15;2.08;;;5.50;99.90;;;;;;5047541;28;20021;-62
2024/02/23 08:04:17;;;;;;;7.10;2.22;;;5.60;99.90;;;;;;5049137;28;20055;-63
2024/02/23 08:06:43;;;;;;;9.90;2.63;;;5.60;99.90;;;;;;5043953;28;20127;-63
2024/02/23 08:09:09;;;;;;;6.03;2.20;;;5.60;99.90;;;;;;5048394;28;20073;-63
2024/02/23 08:11:35;;;;;;;5.43;2.40;;;5.60;99.90;;;;;;5059538;28;20077;-63
2024/02/23 08:14:02;;;;;;;6.47;2.30;;;5.70;99.90;;;;;;5054707;28;20053;-63
2024/02/23 08:16:28;;;;;;;8.65;2.35;;;5.60;99.90;;;;;;5052559;28;20075;-63
2024/02/23 08:18:54;;;;;;;5.50;2.28;;;5.70;99.90;;;;;;5052367;28;20041;-63
2024/02/23 08:21:20;;;;;;;6.75;2.30;;;5.70;99.90;;;;;;5053576;28;20033;-63
2024/02/23 08:23:45;;;;;;;10.38;2.42;;;5.70;99.90;;;;;;5055830;28;20480;-63
2024/02/23 08:26:11;;;;;;;6.90;2.38;;;5.70;99.90;;;;;;5047135;28;20033;-63
2024/02/23 08:28:37;;;;;;;6.50;2.40;;;5.70;99.90;;;;;;5056253;28;20037;-63
2024/02/23 08:31:03;;;;;;;7.25;2.28;;;5.70;99.90;;;;;;5053381;28;20037;-63
2024/02/23 08:33:28;;;;;;;11.10;2.55;;;5.80;99.90;;;;;;5053353;28;20123;-63
2024/02/23 08:35:54;;;;;;;7.05;1.80;;;5.90;99.90;;;;;;5053431;28;20146;-63
2024/02/23 08:38:20;;;;;;;6.43;1.92;;;6.00;99.90;;;;;;5052076;28;20387;-63
2024/02/23 08:40:46;;;;;;;7.90;1.98;;;6.00;99.90;;;;;;5052921;28;20041;-63
2024/02/23 08:43:13;;;;;;;7.82;1.67;;;6.10;99.90;;;;;;5048851;28;20037;-63
2024/02/23 08:45:39;;;;;;;10.80;2.00;;;6.20;99.90;;;;;;5036458;28;20171;-63
2024/02/23 08:48:05;;;;;;;9.07;1.80;;;6.20;99.90;;;;;;5043774;28;20222;-63
2024/02/23 08:50:31;;;;;;;4.85;1.80;;;6.20;99.90;;;;;;5046345;28;20045;-62
2024/02/23 08:52:56;;;;;;;6.00;1.55;;;6.30;99.90;;;;;;5052153;28;20073;-62
2024/02/23 08:55:22;;;;;;;7.40;1.92;;;6.30;99.90;;;;;;5053435;28;20403;-63
2024/02/23 08:57:48;;;;;;;4.22;1.33;;;6.30;99.90;;;;;;5048453;28;20039;-63
2024/02/23 09:00:14;;;;;;;8.25;2.03;;;6.30;99.90;;;;;;5047741;28;20033;-63
2024/02/23 09:02:42;;;;;;;7.05;2.10;;;6.40;99.90;;;;;;5047174;28;20079;-62
2024/02/23 09:05:08;;;;;;;8.60;1.80;;;6.40;99.90;;;;;;5044866;28;20043;-63
2024/02/23 09:07:34;;;;;;;3.10;1.33;;;6.50;99.90;;;;;;5048775;28;20459;-63
2024/02/23 09:10:00;;;;;;;10.73;1.75;;;6.60;99.90;;;;;;5041917;28;20041;-63
2024/02/23 09:12:25;;;;;;;6.57;1.75;;;6.50;99.90;;;;;;5044435;28;20661;-63
2024/02/23 09:14:51;;;;;;;10.02;1.70;;;6.60;99.90;;;;;;5055243;28;20499;-63
2024/02/23 09:17:18;;;;;;;6.78;1.60;;;6.70;99.90;;;;;;5040380;28;20068;-63
2024/02/23 09:19:44;;;;;;;8.05;1.85;;;6.50;99.90;;;;;;5047394;28;20098;-63
2024/02/23 09:22:10;;;;;;;7.00;1.58;;;6.50;99.90;;;;;;5046294;28;20037;-63
2024/02/23 09:24:40;;;;;;;9.82;1.58;;;6.60;99.90;;;;;;5050289;28;20037;-63
2024/02/23 09:27:06;;;;;;;7.07;1.60;;;6.60;99.90;;;;;;5045943;28;20428;-63
2024/02/23 09:29:32;;;;;;;10.07;1.95;;;6.60;99.90;;;;;;5048628;28;20043;-63
2024/02/23 09:31:58;;;;;;;7.50;1.70;;;6.70;99.90;;;;;;5048437;28;20116;-63
2024/02/23 09:34:24;;;;;;;7.90;1.73;;;6.70;99.90;;;;;;5045206;28;20084;-63
2024/02/23 09:36:50;;;;;;;7.00;1.60;;;6.70;99.90;;;;;;5046056;28;20037;-63
2024/02/23 09:39:16;;;;;;;11.88;1.70;;;6.80;99.90;;;;;;5046079;28;20123;-63
2024/02/23 09:41:43;;;;;;;9.13;1.73;;;6.80;99.90;;;;;;5057906;28;20041;-63
2024/02/23 09:44:09;;;;;;;10.10;1.90;;;6.90;99.90;;;;;;5051346;28;20037;-63
2024/02/23 09:46:37;;;;;;;7.35;1.58;;;6.90;99.90;;;;;;5046750;28;20373;-63
2024/02/23 09:49:06;;;;;;;6.93;1.65;;;6.90;99.90;;;;;;5051293;28;20045;-63
2024/02/23 09:51:33;;;;;;;8.90;1.80;;;7.00;99.90;;;;;;5050445;28;20049;-63
2024/02/23 09:53:59;;;;;;;7.35;1.65;;;7.00;99.90;;;;;;5050190;28;20803;-63
2024/02/23 09:56:28;;;;;;;4.63;1.48;;;7.00;99.90;;;;;;5045670;28;20043;-63
2024/02/23 09:58:56;;;;;;;9.00;1.90;;;7.00;99.90;;;;;;5050730;28;20485;-63
2024/02/23 10:01:28;;;;;;;8.65;1.55;;;7.00;99.90;;;;;;5051476;28;20037;-63
2024/02/23 10:04:06;;;;;;;8.82;1.83;;;7.00;99.90;;;;;;5049000;28;20120;-63
2024/02/23 10:06:32;;;;;;;7.70;1.50;;;7.50;99.90;;;;;;5050348;28;20608;-63
2024/02/23 10:08:58;;;;;;;5.72;1.33;;;6.90;99.90;;;;;;5049826;28;20040;-63
2024/02/23 10:11:25;;;;;;;9.15;1.60;;;6.90;99.90;;;;;;5049895;28;20040;-63
2024/02/23 10:13:54;;;;;;;7.30;1.77;;;6.90;99.90;;;;;;5041516;28;20388;-63
2024/02/23 10:16:20;;;;;;;4.65;1.40;;;6.80;99.90;;;;;;5049741;28;20440;-63
2024/02/23 10:18:48;;;;;;;12.13;1.73;;;6.80;99.90;;;;;;5049920;28;20041;-63
2024/02/23 10:21:17;;;;;;;7.20;1.40;;;6.90;99.90;;;;;;5049721;28;20108;-63
2024/02/23 10:23:47;;;;;;;10.88;1.92;;;6.80;99.90;;;;;;5049563;28;20033;-63
2024/02/23 10:26:18;;;;;;;7.63;1.70;;;6.80;99.90;;;;;;5050594;28;20033;-63
2024/02/23 10:28:45;;;;;;;9.07;1.58;;;6.80;99.90;;;;;;5050058;28;20539;-63
2024/02/23 10:31:11;;;;;;;7.82;1.58;;;6.80;99.90;;;;;;5051139;28;20119;-63
2024/02/23 10:33:38;;;;;;;8.80;2.05;;;7.00;99.90;;;;;;5050266;28;20465;-63
2024/02/23 10:36:05;;;;;;;6.78;1.45;;;7.00;99.90;;;;;;5050569;28;20115;-63
2024/02/23 10:38:33;;;;;;;6.00;1.63;;;6.90;99.90;;;;;;5048916;28;20103;-63
2024/02/23 10:41:00;;;;;;;9.73;2.08;;;6.80;99.90;;;;;;5050812;28;20052;-63
2024/02/23 10:43:44;;;;;;;6.22;1.50;;;6.90;99.90;;;;;;5050632;28;20048;-63
2024/02/23 10:46:12;;;;;;;7.35;1.67;;;6.90;99.90;;;;;;5045529;28;20037;-63
2024/02/23 10:48:43;;;;;;;6.25;1.60;;;6.90;99.90;;;;;;5049847;28;20037;-63
2024/02/23 10:51:12;;;;;;;6.47;1.50;;;6.90;99.90;;;;;;5050251;28;20071;-63
2024/02/23 10:53:40;;;;;;;6.53;1.50;;;7.00;99.90;;;;;;5045858;28;20040;-63
2024/02/23 10:56:07;;;;;;;8.00;1.70;;;7.10;99.90;;;;;;5050256;28;20033;-63
2024/02/23 10:58:33;;;;;;;8.20;1.58;;;6.90;99.90;;;;;;5049594;28;20053;-63
2024/02/23 11:01:04;;;;;;;6.25;1.48;;;6.90;99.90;;;;;;5050386;28;20045;-63
2024/02/23 11:03:32;;;;;;;10.18;1.42;;;6.90;99.90;;;;;;5049732;28;20087;-64
2024/02/23 11:05:59;;;;;;;8.55;2.10;;;6.90;99.90;;;;;;5053148;28;20064;-63
2024/02/23 11:08:28;;;;;;;5.88;1.45;;;7.00;99.90;;;;;;5036125;28;20549;-63
2024/02/23 11:10:54;;;;;;;8.90;2.00;;;7.00;99.90;;;;;;5049769;28;20037;-63
2024/02/23 11:13:36;;;;;;;7.82;1.60;;;6.90;99.90;;;;;;5050150;28;20091;-63
2024/02/23 11:16:05;;;;;;;5.50;1.25;;;6.90;99.90;;;;;;5049776;28;20037;-63
2024/02/23 11:18:35;;;;;;;9.27;1.60;;;6.90;99.90;;;;;;5049606;28;20127;-63
2024/02/23 11:21:02;;;;;;;10.85;2.15;;;6.90;99.90;;;;;;5048864;28;20446;-63
2024/02/23 11:23:51;;;;;;;7.50;1.52;;;6.90;99.90;;;;;;5049783;28;20033;-63
2024/02/23 11:26:18;;;;;;;6.85;1.75;;;6.90;99.90;;;;;;5048278;28;20108;-63
2024/02/23 11:28:53;;;;;;;10.30;1.92;;;7.00;99.90;;;;;;5060761;28;20045;-63
2024/02/23 11:31:26;;;;;;;5.75;1.42;;;7.00;99.90;;;;;;5051129;28;20033;-63
2024/02/23 11:33:56;;;;;;;7.70;1.88;;;7.00;99.90;;;;;;5053427;28;20045;-63
2024/02/23 11:36:30;;;;;;;8.00;1.60;;;7.00;99.90;;;;;;5047051;28;20634;-63
2024/02/23 11:39:00;;;;;;;3.85;1.50;;;7.00;99.90;;;;;;5041011;28;20037;-63
2024/02/23 11:41:27;;;;;;;9.20;1.52;;;6.90;99.90;;;;;;5047739;28;20082;-63
2024/02/23 11:43:55;;;;;;;5.97;1.30;;;7.00;99.90;;;;;;5045922;28;20113;-64
2024/02/23 11:46:22;;;;;;;3.90;1.58;;;7.00;99.90;;;;;;5038702;28;20530;-63
2024/02/23 11:48:53;;;;;;;8.18;1.80;;;7.00;99.90;;;;;;5041145;28;20033;-63
2024/02/23 11:51:23;;;;;;;6.78;1.50;;;7.00;99.90;;;;;;5038383;28;20041;-64
2024/02/23 11:53:49;;;;;;;7.78;1.40;;;7.00;99.90;;;;;;5048348;28;20041;-63
2024/02/23 11:56:15;;;;;;;7.97;1.67;;;7.00;99.90;;;;;;5051372;28;20033;-63
2024/02/23 11:58:41;;;;;;;6.72;1.40;;;7.00;99.90;;;;;;5047217;28;20063;-63
2024/02/23 12:01:07;;;;;;;5.30;1.60;;;7.00;99.90;;;;;;5050491;28;20476;-63
2024/02/23 12:03:33;;;;;;;7.35;1.23;;;7.10;99.90;;;;;;5058223;28;20047;-63
2024/02/23 12:06:00;;;;;;;7.53;1.67;;;7.00;99.90;;;;;;5039762;28;20037;-63
2024/02/23 12:08:27;;;;;;;5.68;1.63;;;7.10;99.90;;;;;;5042273;28;20068;-63
2024/02/23 12:10:56;;;;;;;7.18;1.92;;;7.10;99.90;;;;;;5048842;28;20041;-63
2024/02/23 12:13:23;;;;;;;6.43;1.70;;;7.10;99.90;;;;;;5045202;28;20048;-63
2024/02/23 12:15:52;;;;;;;5.60;1.48;;;6.70;99.90;;;;;;5047980;28;20078;-63
2024/02/23 12:18:23;;;;;;;6.68;1.52;;;7.10;99.90;;;;;;5046987;28;20396;-63
2024/02/23 12:20:49;;;;;;;5.88;1.55;;;7.10;99.90;;;;;;5051939;28;20037;-63
2024/02/23 12:23:15;;;;;;;3.63;1.40;;;7.20;99.90;;;;;;5054365;28;20044;-63
2024/02/23 12:25:40;;;;;;;7.65;1.95;;;7.10;99.90;;;;;;5048885;28;20090;-63
2024/02/23 12:28:06;;;;;;;4.70;1.55;;;7.10;99.90;;;;;;5041917;28;20037;-63
2024/02/23 12:30:33;;;;;;;6.55;1.70;;;7.10;99.90;;;;;;5045229;28;20037;-63
2024/02/23 12:33:07;;;;;;;7.07;1.58;;;7.10;99.90;;;;;;5049547;28;20067;-63
2024/02/23 12:35:34;;;;;;;4.75;1.25;;;7.10;99.90;;;;;;5040260;28;20033;-63
2024/02/23 12:38:00;;;;;;;6.68;1.77;;;7.10;99.90;;;;;;5047149;28;20064;-63
2024/02/23 12:40:26;;;;;;;6.15;1.40;;;7.10;99.90;;;;;;5049168;28;20531;-63
2024/02/23 12:42:52;;;;;;;6.18;2.00;;;7.10;99.90;;;;;;5048961;28;20033;-63
2024/02/23 12:45:17;;;;;;;5.03;1.35;;;7.10;99.90;;;;;;5049462;28;20033;-63
2024/02/23 12:47:43;;;;;;;6.60;1.60;;;7.10;99.90;;;;;;5059454;28;20191;-63
2024/02/23 12:50:09;;;;;;;5.88;2.15;;;7.10;99.90;;;;;;5058211;28;20036;-63